Time;durP1;ratioP1;P1;durP2;ratioP2;P2;SDS_P1;SDS_P2;PMS_P1;PMS_P2;Temp;Humidity;BMP_temperature;BMP_pressure;BME280_temperature;BME280_humidity;BME280_pressure;Samples;Min_cycle;Max_cycle;Signal;HPM_P1;HPM_P2
2023/05/28 00:02:05;;;;;;;18.73;6.15;;;;;;;15.83;100.00;95371.19;5129312;27;20020;-63
2023/05/28 00:04:31;;;;;;;10.25;6.10;;;;;;;15.80;100.00;95377.69;5123857;27;20022;-63
2023/05/28 00:06:57;;;;;;;7.18;6.35;;;;;;;15.73;100.00;95385.53;5119845;27;20023;-63
2023/05/28 00:09:22;;;;;;;8.18;6.13;;;;;;;15.61;100.00;95381.69;5121593;27;20556;-62
2023/05/28 00:11:47;;;;;;;7.18;6.43;;;;;;;15.56;100.00;95397.31;5131117;27;20019;-62
2023/05/28 00:14:13;;;;;;;6.95;6.22;;;;;;;15.52;100.00;95399.53;5129265;27;20068;-62
2023/05/28 00:16:40;;;;;;;6.55;5.85;;;;;;;15.55;100.00;95403.63;5122841;27;20056;-62
2023/05/28 00:19:06;;;;;;;6.90;6.05;;;;;;;15.58;100.00;95405.91;5122520;27;20043;-62
2023/05/28 00:21:35;;;;;;;6.25;5.65;;;;;;;15.58;100.00;95403.25;5123129;27;20021;-63
2023/05/28 00:24:00;;;;;;;9.55;6.00;;;;;;;15.54;100.00;95410.78;5121410;27;20023;-63
2023/05/28 00:26:26;;;;;;;6.22;5.72;;;;;;;15.51;100.00;95405.00;5123889;27;20019;-62
2023/05/28 00:28:52;;;;;;;8.85;6.10;;;;;;;15.46;100.00;95410.81;5122769;27;20479;-62
2023/05/28 00:31:17;;;;;;;9.48;6.22;;;;;;;15.44;100.00;95426.94;5118029;27;20444;-63
2023/05/28 00:33:43;;;;;;;7.47;5.57;;;;;;;15.38;100.00;95422.34;5130688;27;20505;-63
2023/05/28 00:36:12;;;;;;;7.38;6.68;;;;;;;15.35;100.00;95433.31;5129426;27;20015;-62
2023/05/28 00:38:37;;;;;;;7.30;6.35;;;;;;;15.36;100.00;95434.94;5120749;27;20019;-63
2023/05/28 00:41:03;;;;;;;9.23;6.05;;;;;;;15.39;100.00;95437.28;5124455;27;20076;-62
2023/05/28 00:43:28;;;;;;;7.43;5.97;;;;;;;15.33;100.00;95451.22;5123588;27;20020;-62
2023/05/28 00:45:57;;;;;;;10.23;6.45;;;;;;;15.30;100.00;95455.06;5130265;27;20403;-62
2023/05/28 00:48:23;;;;;;;9.85;6.22;;;;;;;15.24;100.00;95471.66;5119129;27;20023;-63
2023/05/28 00:50:49;;;;;;;8.07;6.57;;;;;;;15.22;100.00;95475.50;5125022;27;20019;-62
2023/05/28 00:53:15;;;;;;;6.30;5.80;;;;;;;15.20;100.00;95472.22;5117179;27;20490;-63
2023/05/28 00:55:40;;;;;;;8.50;6.43;;;;;;;15.23;100.00;95480.63;5121128;27;20020;-62
2023/05/28 00:58:07;;;;;;;11.57;6.65;;;;;;;15.22;100.00;95491.44;5122650;27;20027;-62
2023/05/28 01:00:36;;;;;;;7.72;6.63;;;;;;;15.17;100.00;95490.13;5126930;27;20015;-62
2023/05/28 01:03:02;;;;;;;7.82;6.53;;;;;;;15.17;100.00;95498.09;5119001;27;20087;-62
2023/05/28 01:05:31;;;;;;;8.50;6.35;;;;;;;15.12;100.00;95500.41;5101363;27;20125;-62
2023/05/28 01:08:01;;;;;;;8.18;6.43;;;;;;;15.13;100.00;95499.41;5116907;27;20106;-63
2023/05/28 01:10:27;;;;;;;8.75;6.63;;;;;;;15.15;100.00;95497.44;5119715;27;20107;-62
2023/05/28 01:12:54;;;;;;;7.03;6.43;;;;;;;15.13;100.00;95502.06;5138583;27;20102;-62
2023/05/28 01:15:19;;;;;;;7.43;6.65;;;;;;;15.05;100.00;95504.78;5128809;27;20506;-62
2023/05/28 01:17:45;;;;;;;7.25;6.20;;;;;;;15.04;100.00;95506.63;5126492;27;20524;-62
2023/05/28 01:20:13;;;;;;;6.95;6.20;;;;;;;15.05;100.00;95510.06;5119867;27;20015;-62
2023/05/28 01:22:45;;;;;;;7.45;6.35;;;;;;;14.95;100.00;95512.13;5124915;27;20023;-62
2023/05/28 01:25:12;;;;;;;8.52;6.80;;;;;;;14.94;100.00;95521.09;5119056;27;20475;-63
2023/05/28 01:27:41;;;;;;;7.50;6.63;;;;;;;14.88;100.00;95518.09;5122836;27;20024;-63
2023/05/28 01:30:09;;;;;;;7.63;6.78;;;;;;;14.83;100.00;95517.00;5124179;27;20106;-62
2023/05/28 01:32:38;;;;;;;8.00;6.97;;;;;;;14.78;100.00;95516.66;5128234;27;20031;-63
2023/05/28 01:35:05;;;;;;;8.32;7.00;;;;;;;14.81;100.00;95525.09;5122235;27;21559;-62
2023/05/28 01:37:33;;;;;;;7.93;6.38;;;;;;;14.79;100.00;95540.34;5124336;27;20015;-62
2023/05/28 01:40:00;;;;;;;7.22;6.45;;;;;;;14.79;100.00;95550.97;5127524;27;20035;-62
2023/05/28 01:42:27;;;;;;;7.57;6.88;;;;;;;14.72;100.00;95550.00;5131969;27;20039;-62
2023/05/28 01:44:54;;;;;;;9.20;6.65;;;;;;;14.66;100.00;95559.41;5121747;27;20022;-63
2023/05/28 01:47:20;;;;;;;8.70;7.15;;;;;;;14.57;100.00;95553.31;5125939;27;20044;-62
2023/05/28 01:49:46;;;;;;;8.75;6.95;;;;;;;14.56;100.00;95562.25;5126223;27;20019;-63
2023/05/28 01:52:15;;;;;;;7.28;6.68;;;;;;;14.56;100.00;95564.91;5123499;27;20087;-63
2023/05/28 01:54:40;;;;;;;8.25;7.32;;;;;;;14.58;100.00;95562.06;5128239;27;20016;-62
2023/05/28 01:57:06;;;;;;;11.27;7.00;;;;;;;14.54;100.00;95569.56;5126317;27;20031;-63
2023/05/28 01:59:31;;;;;;;7.13;6.53;;;;;;;14.45;100.00;95568.75;5121649;27;20054;-63
2023/05/28 02:01:57;;;;;;;10.90;7.15;;;;;;;14.35;100.00;95575.22;5128755;27;20626;-63
2023/05/28 02:04:23;;;;;;;7.47;6.78;;;;;;;14.26;100.00;95585.84;5119285;27;20020;-63
2023/05/28 02:06:48;;;;;;;8.85;7.07;;;;;;;14.28;100.00;95598.91;5126179;27;20510;-62
2023/05/28 02:09:13;;;;;;;7.47;6.78;;;;;;;14.35;100.00;95604.34;5115227;28;20019;-62
2023/05/28 02:11:39;;;;;;;7.60;6.90;;;;;;;14.33;100.00;95608.00;5126873;27;20099;-62
2023/05/28 02:14:05;;;;;;;7.55;6.93;;;;;;;14.26;100.00;95606.19;5118141;27;20027;-62
2023/05/28 02:16:31;;;;;;;7.95;7.15;;;;;;;14.22;100.00;95620.75;5120416;27;20035;-62
2023/05/28 02:18:58;;;;;;;8.30;7.47;;;;;;;14.18;100.00;95623.75;5113639;28;20492;-62
2023/05/28 02:21:23;;;;;;;7.70;7.00;;;;;;;14.15;100.00;95629.38;5126015;27;20053;-63
2023/05/28 02:23:49;;;;;;;8.73;7.25;;;;;;;14.13;100.00;95627.88;5119695;27;20028;-62
2023/05/28 02:26:15;;;;;;;7.32;6.72;;;;;;;14.12;100.00;95648.19;5116620;27;20409;-63
2023/05/28 02:28:44;;;;;;;8.23;6.85;;;;;;;14.17;100.00;95637.13;5119539;27;20023;-62
2023/05/28 02:31:10;;;;;;;7.32;6.70;;;;;;;14.20;100.00;95646.56;5119996;27;20046;-62
2023/05/28 02:33:45;;;;;;;8.90;6.90;;;;;;;14.21;100.00;95649.03;5118753;27;20038;-63
2023/05/28 02:36:13;;;;;;;8.20;6.97;;;;;;;14.16;100.00;95665.44;5120212;27;20021;-62
2023/05/28 02:38:39;;;;;;;7.85;7.10;;;;;;;14.17;100.00;95671.53;5114698;28;20024;-62
2023/05/28 02:41:05;;;;;;;8.40;7.50;;;;;;;14.15;100.00;95662.94;5117041;27;20030;-63
2023/05/28 02:43:30;;;;;;;8.02;7.20;;;;;;;14.09;100.00;95667.06;5118066;28;20028;-62
2023/05/28 02:45:56;;;;;;;8.50;7.70;;;;;;;14.03;100.00;95668.53;5122697;27;20040;-62
2023/05/28 02:48:21;;;;;;;7.93;7.25;;;;;;;13.97;100.00;95671.03;5124424;28;20027;-62
2023/05/28 02:50:47;;;;;;;7.78;7.05;;;;;;;13.94;100.00;95685.41;5119147;28;20100;-63
2023/05/28 02:53:13;;;;;;;8.13;7.43;;;;;;;13.93;100.00;95675.81;5117062;28;20052;-62
2023/05/28 02:55:38;;;;;;;7.90;7.30;;;;;;;13.86;100.00;95678.28;5117324;27;20032;-62
2023/05/28 02:58:05;;;;;;;8.05;7.28;;;;;;;13.85;100.00;95689.06;5117223;28;20023;-62
2023/05/28 03:00:31;;;;;;;9.57;7.70;;;;;;;13.88;100.00;95691.38;5120667;27;20504;-62
2023/05/28 03:02:56;;;;;;;8.45;7.63;;;;;;;13.89;100.00;95693.03;5100874;28;20015;-62
2023/05/28 03:05:22;;;;;;;8.57;7.78;;;;;;;13.81;100.00;95700.94;5132366;27;20035;-62
2023/05/28 03:07:48;;;;;;;8.45;7.53;;;;;;;13.73;100.00;95702.56;5115356;28;20015;-62
2023/05/28 03:10:14;;;;;;;8.80;8.02;;;;;;;13.57;100.00;95676.06;5112912;28;20028;-63
2023/05/28 03:12:39;;;;;;;9.02;7.53;;;;;;;13.51;100.00;95687.28;5127479;27;20071;-63
2023/05/28 03:15:05;;;;;;;8.38;6.90;;;;;;;13.54;100.00;95681.69;5115609;27;20045;-63
2023/05/28 03:17:31;;;;;;;10.57;7.63;;;;;;;13.48;100.00;95691.06;5122094;28;20027;-63
2023/05/28 03:19:56;;;;;;;8.70;7.82;;;;;;;13.44;100.00;95697.69;5132823;28;20046;-63
2023/05/28 03:22:21;;;;;;;7.95;7.30;;;;;;;13.40;100.00;95689.22;5123182;27;20027;-63
2023/05/28 03:24:47;;;;;;;7.93;7.22;;;;;;;13.43;100.00;95691.59;5116496;27;20027;-63
2023/05/28 03:27:12;;;;;;;9.75;7.88;;;;;;;13.46;100.00;95699.19;5123707;28;20023;-63
2023/05/28 03:29:38;;;;;;;8.00;7.30;;;;;;;13.42;100.00;95702.28;5116729;27;20036;-63
2023/05/28 03:32:03;;;;;;;9.98;8.18;;;;;;;13.45;100.00;95700.19;5098179;28;20100;-63
2023/05/28 03:34:29;;;;;;;8.82;7.80;;;;;;;13.50;100.00;95702.34;5115008;28;20031;-63
2023/05/28 03:36:54;;;;;;;8.13;7.40;;;;;;;13.49;100.00;95708.63;5133242;27;20030;-63
2023/05/28 03:39:20;;;;;;;7.95;7.15;;;;;;;13.54;100.00;95706.34;5116184;28;20027;-63
2023/05/28 03:41:45;;;;;;;8.88;8.15;;;;;;;13.54;100.00;95700.19;5113744;28;20051;-63
2023/05/28 03:44:10;;;;;;;9.30;7.97;;;;;;;13.52;100.00;95707.47;5098388;28;20103;-63
2023/05/28 03:46:36;;;;;;;9.13;8.20;;;;;;;13.55;100.00;95705.34;5130970;27;20054;-63
2023/05/28 03:49:02;;;;;;;8.18;7.22;;;;;;;13.56;100.00;95699.06;5115643;28;20011;-63
2023/05/28 03:51:27;;;;;;;9.43;7.80;;;;;;;13.54;100.00;95710.78;5119042;27;20030;-63
2023/05/28 03:53:53;;;;;;;8.40;7.60;;;;;;;13.52;100.00;95710.13;5127022;27;20047;-63
2023/05/28 03:56:19;;;;;;;8.40;7.68;;;;;;;13.55;100.00;95717.72;5128236;27;20038;-63
2023/05/28 03:58:45;;;;;;;20.10;8.77;;;;;;;13.53;100.00;95717.06;5118313;27;20028;-63
2023/05/28 04:01:12;;;;;;;8.52;7.82;;;;;;;13.56;100.00;95716.72;5118271;27;20095;-62
2023/05/28 04:03:37;;;;;;;7.80;7.00;;;;;;;13.57;100.00;95715.75;5133712;27;20072;-63
2023/05/28 04:06:03;;;;;;;8.80;7.97;;;;;;;13.55;100.00;95712.44;5121018;27;20045;-63
2023/05/28 04:08:28;;;;;;;8.13;7.25;;;;;;;13.56;100.00;95716.72;5128926;27;20453;-63
2023/05/28 04:10:54;;;;;;;8.43;7.68;;;;;;;13.61;100.00;95723.22;5119237;27;20024;-63
2023/05/28 04:13:19;;;;;;;8.00;7.30;;;;;;;13.66;100.00;95714.81;5141651;27;20026;-63
2023/05/28 04:15:44;;;;;;;9.20;8.30;;;;;;;13.65;100.00;95718.44;5123986;27;20031;-63
2023/05/28 04:18:10;;;;;;;8.48;7.68;;;;;;;13.65;100.00;95713.16;5122783;27;20058;-63
2023/05/28 04:20:35;;;;;;;8.82;7.13;;;;;;;13.67;100.00;95724.38;5120479;27;20022;-62
2023/05/28 04:23:01;;;;;;;8.23;7.43;;;;;;;13.66;100.00;95720.09;5117149;27;20034;-63
2023/05/28 04:25:28;;;;;;;8.52;7.05;;;;;;;13.65;100.00;95723.72;5119621;27;20056;-63
2023/05/28 04:27:54;;;;;;;11.80;7.45;;;;;;;13.73;100.00;95718.44;5122723;27;20023;-63
2023/05/28 04:30:22;;;;;;;9.52;7.43;;;;;;;13.79;100.00;95721.44;5132801;27;20030;-62
2023/05/28 04:32:48;;;;;;;8.27;7.50;;;;;;;13.80;100.00;95721.28;5133423;27;20451;-63
2023/05/28 04:35:14;;;;;;;8.30;7.45;;;;;;;13.83;100.00;95722.78;5123339;27;20023;-63
2023/05/28 04:37:39;;;;;;;8.05;7.25;;;;;;;13.86;100.00;95725.09;5137793;27;20482;-62
2023/05/28 04:40:07;;;;;;;8.45;7.60;;;;;;;13.83;100.00;95713.03;5119077;27;20020;-63
2023/05/28 04:42:33;;;;;;;8.25;7.47;;;;;;;13.84;100.00;95721.81;5132296;27;20390;-63
2023/05/28 04:44:58;;;;;;;8.73;7.88;;;;;;;13.85;100.00;95720.81;5126874;27;20147;-63
2023/05/28 04:47:24;;;;;;;8.75;7.95;;;;;;;13.87;100.00;95729.41;5129621;27;20058;-63
2023/05/28 04:49:49;;;;;;;9.27;7.82;;;;;;;13.88;100.00;95729.22;5132678;27;20019;-62
2023/05/28 04:52:16;;;;;;;13.18;7.53;;;;;;;13.90;100.00;95723.78;5120622;27;20102;-63
2023/05/28 04:54:42;;;;;;;8.65;7.70;;;;;;;13.94;100.00;95733.06;5131137;27;20026;-63
2023/05/28 04:57:07;;;;;;;8.32;7.63;;;;;;;13.97;100.00;95735.38;5122178;27;20016;-63
2023/05/28 04:59:34;;;;;;;7.88;7.18;;;;;;;14.04;100.00;95733.75;5119796;27;20087;-62
2023/05/28 05:02:00;;;;;;;8.40;7.03;;;;;;;14.14;100.00;95732.75;5126313;27;20008;-63
2023/05/28 05:04:25;;;;;;;8.32;7.03;;;;;;;14.13;100.00;95737.22;5129272;27;20023;-63
2023/05/28 05:06:51;;;;;;;9.95;7.97;;;;;;;14.14;100.00;95738.06;5135230;27;20022;-63
2023/05/28 05:09:16;;;;;;;9.02;8.05;;;;;;;14.11;100.00;95738.38;5125517;27;20020;-63
2023/05/28 05:11:42;;;;;;;8.38;7.40;;;;;;;14.11;100.00;95733.09;5128947;27;20023;-63
2023/05/28 05:14:07;;;;;;;8.82;7.93;;;;;;;14.15;100.00;95739.72;5118969;27;20242;-63
2023/05/28 05:16:33;;;;;;;8.02;7.32;;;;;;;14.19;100.00;95741.03;5101950;27;20157;-62
2023/05/28 05:18:58;;;;;;;9.32;8.00;;;;;;;14.28;100.00;95737.44;5132061;27;20451;-63
2023/05/28 05:21:24;;;;;;;8.15;7.45;;;;;;;14.31;100.00;95744.19;5134916;27;20091;-62
2023/05/28 05:23:49;;;;;;;11.88;7.88;;;;;;;14.38;100.00;95741.72;5126108;27;20033;-63
2023/05/28 05:26:17;;;;;;;7.97;7.28;;;;;;;14.42;100.00;95733.28;5115622;27;20019;-63
2023/05/28 05:28:43;;;;;;;10.25;7.53;;;;;;;14.52;100.00;95738.44;5125892;27;20055;-63
2023/05/28 05:31:11;;;;;;;8.10;7.30;;;;;;;14.68;100.00;95728.81;5126338;27;20019;-63
2023/05/28 05:33:37;;;;;;;9.45;7.00;;;;;;;14.81;100.00;95723.88;5118397;27;20091;-63
2023/05/28 05:36:03;;;;;;;8.55;7.65;;;;;;;14.85;100.00;95719.88;5123817;27;20031;-63
2023/05/28 05:38:30;;;;;;;8.60;6.72;;;;;;;14.95;100.00;95714.41;5131815;27;20027;-63
2023/05/28 05:40:55;;;;;;;8.18;7.43;;;;;;;15.01;100.00;95718.19;5125416;27;20020;-63
2023/05/28 05:43:21;;;;;;;8.05;6.97;;;;;;;15.04;100.00;95712.56;5120952;27;20269;-63
2023/05/28 05:45:46;;;;;;;7.95;7.03;;;;;;;15.10;100.00;95706.56;5121992;27;20062;-62
2023/05/28 05:48:12;;;;;;;8.50;6.97;;;;;;;15.18;100.00;95709.22;5129116;27;20094;-63
2023/05/28 05:50:50;;;;;;;7.30;6.72;;;;;;;15.30;100.00;95706.19;5133693;27;20068;-63
2023/05/28 05:53:16;;;;;;;7.05;6.38;;;;;;;15.48;100.00;95705.97;5118394;27;20023;-62
2023/05/28 05:55:42;;;;;;;7.45;6.43;;;;;;;15.64;100.00;95693.59;5102391;27;20043;-62
2023/05/28 05:58:07;;;;;;;9.18;6.70;;;;;;;15.77;100.00;95691.22;5124816;27;20022;-63
2023/05/28 06:00:33;;;;;;;6.82;6.22;;;;;;;15.86;100.00;95689.34;5114681;27;20042;-62
2023/05/28 06:03:00;;;;;;;6.88;6.28;;;;;;;15.97;100.00;95691.63;5119723;27;20027;-63
2023/05/28 06:05:26;;;;;;;8.13;6.28;;;;;;;16.04;100.00;95692.59;5118865;27;20483;-63
2023/05/28 06:07:52;;;;;;;10.40;6.93;;;;;;;16.12;100.00;95698.84;5125276;27;20020;-63
2023/05/28 06:10:18;;;;;;;7.55;6.18;;;;;;;16.21;100.00;95691.66;5126150;27;20037;-63
2023/05/28 06:12:43;;;;;;;7.88;6.63;;;;;;;16.28;100.00;95697.88;5126617;27;20202;-63
2023/05/28 06:15:09;;;;;;;7.38;6.70;;;;;;;16.41;100.00;95691.97;5118236;27;20025;-63
2023/05/28 06:17:34;;;;;;;6.65;5.97;;;;;;;16.51;100.00;95697.88;5118278;27;20027;-63
2023/05/28 06:20:00;;;;;;;7.93;5.97;;;;;;;16.71;100.00;95687.56;5116611;27;20023;-63
2023/05/28 06:22:26;;;;;;;8.35;6.25;;;;;;;16.98;100.00;95695.13;5116887;27;20041;-63
2023/05/28 06:24:52;;;;;;;9.68;5.68;;;;;;;17.18;100.00;95695.44;5116973;27;20020;-63
2023/05/28 06:27:19;;;;;;;6.75;6.15;;;;;;;17.33;100.00;95696.25;5122111;27;20019;-63
2023/05/28 06:29:45;;;;;;;7.00;6.30;;;;;;;17.44;100.00;95689.66;5117725;27;20100;-63
2023/05/28 06:32:13;;;;;;;7.53;5.47;;;;;;;17.60;100.00;95687.81;5124977;27;20027;-63
2023/05/28 06:34:38;;;;;;;6.70;5.38;;;;;;;17.73;100.00;95689.81;5123266;27;20027;-63
2023/05/28 06:37:04;;;;;;;10.32;6.10;;;;;;;17.91;100.00;95689.38;5132772;27;20019;-63
2023/05/28 06:39:30;;;;;;;7.15;5.95;;;;;;;18.08;100.00;95683.84;5124256;27;20022;-63
2023/05/28 06:41:55;;;;;;;6.15;5.32;;;;;;;18.29;100.00;95683.88;5117802;27;20030;-63
2023/05/28 06:44:20;;;;;;;6.32;5.47;;;;;;;18.56;100.00;95686.75;5125954;28;20079;-63
2023/05/28 06:46:46;;;;;;;8.40;5.80;;;;;;;18.90;100.00;95679.84;5129170;27;20070;-63
2023/05/28 06:49:12;;;;;;;6.60;5.30;;;;;;;19.27;100.00;95665.50;5123581;28;20141;-63
2023/05/28 06:51:38;;;;;;;5.50;5.00;;;;;;;19.61;100.00;95669.16;5126157;28;20059;-63
2023/05/28 06:54:03;;;;;;;6.55;5.35;;;;;;;19.76;100.00;95671.69;5119563;28;20104;-63
2023/05/28 06:56:28;;;;;;;8.10;6.13;;;;;;;19.90;100.00;95664.53;5109360;28;20023;-63
2023/05/28 06:58:54;;;;;;;6.32;5.82;;;;;;;20.21;100.00;95665.03;5114826;28;20016;-63
2023/05/28 07:01:20;;;;;;;7.47;6.00;;;;;;;20.54;100.00;95664.22;5133373;27;20027;-63
2023/05/28 07:03:46;;;;;;;6.20;5.63;;;;;;;20.65;100.00;95662.78;5132541;27;20413;-63
2023/05/28 07:06:12;;;;;;;6.85;5.93;;;;;;;20.86;100.00;95661.78;5117601;27;20077;-63
2023/05/28 07:08:40;;;;;;;6.35;5.75;;;;;;;21.13;100.00;95664.41;5118726;27;20027;-63
2023/05/28 07:11:07;;;;;;;6.20;5.60;;;;;;;21.40;100.00;95670.53;5116445;28;20507;-63
2023/05/28 07:13:33;;;;;;;5.82;5.30;;;;;;;21.66;100.00;95663.47;5136363;27;20031;-64
2023/05/28 07:15:58;;;;;;;8.75;5.60;;;;;;;21.81;100.00;95665.06;5124006;27;20095;-63
2023/05/28 07:18:24;;;;;;;5.80;5.25;;;;;;;21.71;100.00;95666.31;5123425;28;20051;-63
2023/05/28 07:20:50;;;;;;;5.95;5.38;;;;;;;21.93;100.00;95663.31;5119583;27;20024;-64
2023/05/28 07:23:15;;;;;;;6.50;5.38;;;;;;;22.12;100.00;95661.59;5122338;27;20371;-63
2023/05/28 07:25:42;;;;;;;5.28;4.68;;;;;;;22.29;100.00;95663.72;5124877;27;20031;-63
2023/05/28 07:28:07;;;;;;;5.32;4.82;;;;;;;22.32;100.00;95674.00;5120134;27;20031;-64
2023/05/28 07:30:33;;;;;;;9.38;5.32;;;;;;;22.57;100.00;95668.72;5118462;27;20107;-63
2023/05/28 07:32:58;;;;;;;8.32;5.50;;;;;;;22.60;100.00;95672.81;5132845;27;20158;-64
2023/05/28 07:35:23;;;;;;;7.15;5.45;;;;;;;22.61;100.00;95669.91;5123097;27;20023;-64
2023/05/28 07:37:49;;;;;;;5.43;4.93;;;;;;;22.99;100.00;95670.84;5133592;27;20102;-64
2023/05/28 07:40:15;;;;;;;6.53;5.15;;;;;;;23.64;100.00;95660.66;5123725;27;20027;-63
2023/05/28 07:42:41;;;;;;;5.00;4.60;;;;;;;23.72;100.00;95662.22;5127589;27;20019;-64
2023/05/28 07:45:07;;;;;;;5.30;4.85;;;;;;;23.91;100.00;95664.91;5123548;27;20039;-65
2023/05/28 07:47:33;;;;;;;7.30;5.07;;;;;;;24.28;100.00;95662.94;5121579;27;20622;-65
2023/05/28 07:49:58;;;;;;;5.45;4.95;;;;;;;24.50;100.00;95651.66;5137378;27;20039;-65
2023/05/28 07:52:25;;;;;;;7.88;5.28;;;;;;;24.85;100.00;95658.16;5129284;27;20127;-65
2023/05/28 07:54:51;;;;;;;5.97;4.75;;;;;;;24.24;100.00;95660.94;5120980;27;20030;-66
2023/05/28 07:57:17;;;;;;;5.50;5.00;;;;;;;24.29;100.00;95655.69;5117314;27;20027;-65
2023/05/28 07:59:43;;;;;;;6.07;4.55;;;;;;;24.29;100.00;95659.19;5118225;27;20026;-66
2023/05/28 08:02:08;;;;;;;6.05;4.85;;;;;;;24.60;100.00;95659.16;5125505;27;20866;-64
2023/05/28 08:04:34;;;;;;;5.80;5.13;;;;;;;24.52;100.00;95644.16;5126237;27;20020;-64
2023/05/28 08:07:00;;;;;;;9.32;5.15;;;;;;;25.08;100.00;95638.47;5120722;27;20081;-65
2023/05/28 08:09:26;;;;;;;4.88;4.53;;;;;;;25.45;100.00;95635.50;5130686;27;20020;-64
2023/05/28 08:11:51;;;;;;;5.32;4.90;;;;;;;25.27;100.00;95638.34;5133043;27;20029;-64
2023/05/28 08:14:16;;;;;;;5.20;4.70;;;;;;;25.74;100.00;95638.25;5121048;27;20042;-65
2023/05/28 08:16:42;;;;;;;8.07;4.95;;;;;;;25.49;100.00;95637.72;5117208;28;20074;-64
2023/05/28 08:19:07;;;;;;;7.95;4.78;;;;;;;25.52;100.00;95637.25;5128813;27;20110;-64
2023/05/28 08:21:32;;;;;;;7.75;5.38;;;;;;;25.55;100.00;95632.22;5120017;27;20027;-64
2023/05/28 08:23:58;;;;;;;5.25;4.75;;;;;;;25.55;100.00;95637.59;5120924;27;20024;-64
2023/05/28 08:26:23;;;;;;;5.45;4.95;;;;;;;25.84;100.00;95626.84;5117331;27;20132;-64
2023/05/28 08:28:49;;;;;;;6.35;5.07;;;;;;;25.81;100.00;95631.91;5118691;27;20019;-64
2023/05/28 08:31:14;;;;;;;7.38;5.40;;;;;;;25.67;100.00;95626.78;5124357;27;20024;-64
2023/05/28 08:33:40;;;;;;;6.13;4.80;;;;;;;25.94;100.00;95615.44;5115497;28;20459;-64
2023/05/28 08:36:06;;;;;;;6.63;4.72;;;;;;;25.94;100.00;95614.63;5128711;27;20061;-65
2023/05/28 08:38:31;;;;;;;5.80;4.85;;;;;;;25.96;100.00;95612.50;5135499;27;20055;-65
2023/05/28 08:40:57;;;;;;;7.03;5.03;;;;;;;26.55;100.00;95608.69;5124850;27;20225;-64
2023/05/28 08:43:23;;;;;;;5.43;4.93;;;;;;;26.27;100.00;95607.66;5123990;27;20031;-65
2023/05/28 08:45:52;;;;;;;6.78;5.13;;;;;;;25.51;100.00;95600.59;5123501;27;20080;-65
2023/05/28 08:48:17;;;;;;;6.28;5.40;;;;;;;25.51;100.00;95600.59;5127275;27;20075;-65
2023/05/28 08:50:47;;;;;;;5.28;4.85;;;;;;;24.52;100.00;95605.66;5128037;27;20027;-65
2023/05/28 08:53:16;;;;;;;8.65;5.55;;;;;;;23.98;100.00;95604.59;5123323;27;20425;-65
2023/05/28 08:55:44;;;;;;;5.70;5.10;;;;;;;23.71;100.00;95609.53;5131398;27;20466;-64
2023/05/28 08:58:11;;;;;;;6.60;5.25;;;;;;;24.29;100.00;95591.97;5128195;27;20457;-64
2023/05/28 09:00:37;;;;;;;6.97;5.10;;;;;;;25.03;100.00;95595.28;5115986;27;20045;-65
2023/05/28 09:03:07;;;;;;;5.57;5.07;;;;;;;25.39;100.00;95581.72;5115261;27;20047;-64
2023/05/28 09:05:39;;;;;;;5.53;4.97;;;;;;;25.09;100.00;95578.19;5118091;27;20026;-64
2023/05/28 09:08:10;;;;;;;6.95;4.43;;;;;;;25.48;100.00;95579.50;5125409;27;20068;-65
2023/05/28 09:10:39;;;;;;;5.10;4.53;;;;;;;26.42;100.00;95572.03;5128990;27;20038;-65
2023/05/28 09:13:05;;;;;;;5.50;4.97;;;;;;;26.62;100.00;95573.41;5127933;27;20019;-65
2023/05/28 09:15:34;;;;;;;6.20;4.80;;;;;;;26.43;100.00;95568.28;5126897;27;20051;-64
2023/05/28 09:18:01;;;;;;;5.45;4.85;;;;;;;26.71;100.00;95556.53;5126895;27;20476;-65
2023/05/28 09:20:27;;;;;;;7.85;4.78;;;;;;;27.13;100.00;95557.97;5130466;27;20035;-64
2023/05/28 09:23:05;;;;;;;5.90;4.93;;;;;;;27.36;100.00;95547.97;5117291;27;20054;-65
2023/05/28 09:25:34;;;;;;;5.10;4.63;;;;;;;27.22;100.00;95547.53;5115558;28;20633;-65
2023/05/28 09:28:00;;;;;;;7.38;4.80;;;;;;;27.29;100.00;95544.63;5127818;27;20035;-65
2023/05/28 09:30:26;;;;;;;5.78;4.78;;;;;;;27.74;100.00;95537.31;5122998;27;20087;-65
2023/05/28 09:33:02;;;;;;;6.38;4.45;;;;;;;27.60;100.00;95531.50;5115727;27;20056;-65
2023/05/28 09:35:30;;;;;;;6.82;5.15;;;;;;;28.11;100.00;95530.34;5121497;27;20050;-64
2023/05/28 09:38:07;;;;;;;5.30;4.40;;;;;;;27.70;100.00;95526.16;5116048;27;20070;-65
2023/05/28 09:40:43;;;;;;;6.13;4.60;;;;;;;28.03;100.00;95527.03;5122949;27;20365;-65
2023/05/28 09:43:09;;;;;;;6.07;4.50;;;;;;;28.25;100.00;95517.22;5117468;27;20604;-65
2023/05/28 09:45:35;;;;;;;4.85;4.43;;;;;;;27.95;100.00;95515.84;5124886;27;20043;-64
2023/05/28 09:48:01;;;;;;;6.20;4.85;;;;;;;28.19;100.00;95516.38;5124961;27;20068;-65
2023/05/28 09:50:27;;;;;;;4.80;4.40;;;;;;;28.06;100.00;95517.56;5127457;27;20494;-65
2023/05/28 09:52:57;;;;;;;4.65;4.18;;;;;;;28.14;100.00;95513.56;5122605;27;20027;-65
2023/05/28 09:55:27;;;;;;;6.50;4.40;;;;;;;28.07;100.00;95513.00;5121606;27;20499;-66
2023/05/28 09:58:14;;;;;;;5.38;4.88;;;;;;;28.53;100.00;95501.72;5114503;27;20414;-65
2023/05/28 10:00:44;;;;;;;6.75;4.60;;;;;;;28.69;100.00;95505.34;5117002;27;20027;-64
2023/05/28 10:03:13;;;;;;;6.97;4.20;;;;;;;28.87;100.00;95509.50;5127549;27;20035;-64
2023/05/28 10:05:42;;;;;;;6.97;4.45;;;;;;;28.47;100.00;95509.00;5119630;27;20111;-64
2023/05/28 10:08:13;;;;;;;5.07;4.28;;;;;;;28.19;100.00;95502.84;5131450;27;20034;-64
2023/05/28 10:10:41;;;;;;;5.68;4.68;;;;;;;28.70;100.00;95498.84;5116533;27;20036;-64
2023/05/28 10:13:09;;;;;;;7.57;4.75;;;;;;;29.20;100.00;95493.94;5127638;27;20384;-64
2023/05/28 10:15:36;;;;;;;5.03;4.53;;;;;;;29.37;100.00;95490.19;5125426;27;20050;-65
2023/05/28 10:18:02;;;;;;;9.48;4.47;;;;;;;29.72;100.00;95497.59;5120946;27;20030;-66
2023/05/28 10:20:29;;;;;;;6.55;5.20;;;;;;;29.82;100.00;95491.38;5122163;27;20024;-66
2023/05/28 10:22:55;;;;;;;8.30;5.53;;;;;;;29.41;100.00;95489.41;5129294;27;20079;-65
2023/05/28 10:25:21;;;;;;;6.00;4.60;;;;;;;28.96;100.00;95486.28;5121778;27;20035;-72
2023/05/28 10:27:48;;;;;;;6.28;4.28;;;;;;;28.70;100.00;95472.56;5126329;27;20065;-72
2023/05/28 10:30:39;;;;;;;5.18;4.60;;;;;;;28.43;100.00;95472.69;5117418;27;20027;-72
2023/05/28 10:33:07;;;;;;;6.78;4.55;;;;;;;28.27;100.00;95469.06;5123074;27;20039;-72
2023/05/28 10:35:35;;;;;;;5.18;4.78;;;;;;;28.71;100.00;95470.69;5118199;27;20027;-72
2023/05/28 10:38:04;;;;;;;12.50;11.15;;;;;;;29.31;100.00;95473.13;5127583;27;20080;-72
2023/05/28 10:40:34;;;;;;;16.25;14.77;;;;;;;29.75;100.00;95463.72;5123728;27;20609;-72
2023/05/28 10:43:00;;;;;;;5.03;4.50;;;;;;;29.48;100.00;95463.94;5118007;27;20052;-71
2023/05/28 10:45:35;;;;;;;6.65;4.85;;;;;;;29.67;100.00;95459.63;5126446;27;20023;-72
2023/05/28 10:48:01;;;;;;;8.07;4.22;;;;;;;29.56;100.00;95455.28;5117293;27;20566;-72
2023/05/28 10:50:27;;;;;;;5.72;4.30;;;;;;;29.37;100.00;95447.63;5125844;27;20046;-72
2023/05/28 10:53:10;;;;;;;5.63;4.38;;;;;;;29.40;100.00;95441.69;5126589;27;20023;-72
2023/05/28 10:55:55;;;;;;;5.55;4.15;;;;;;;29.55;100.00;95446.34;5114826;28;20027;-72
2023/05/28 10:58:24;;;;;;;6.80;4.03;;;;;;;29.28;100.00;95444.63;5117103;28;20467;-72
2023/05/28 11:00:50;;;;;;;5.68;5.05;;;;;;;29.44;100.00;95434.66;5126462;27;20027;-72
2023/05/28 11:03:15;;;;;;;5.20;4.10;;;;;;;29.73;100.00;95431.44;5123808;27;20034;-72
2023/05/28 11:05:41;;;;;;;5.63;4.72;;;;;;;30.18;100.00;95432.81;5125527;27;20047;-69
2023/05/28 11:08:08;;;;;;;5.80;4.55;;;;;;;29.56;100.00;95422.75;5122312;27;20106;-72
2023/05/28 11:10:34;;;;;;;4.90;4.40;;;;;;;28.52;100.00;95421.59;5127594;27;20442;-70
2023/05/28 11:13:00;;;;;;;5.18;4.65;;;;;;;28.73;100.00;95409.72;5122467;27;20039;-68
2023/05/28 11:15:25;;;;;;;5.78;5.00;;;;;;;28.95;100.00;95413.38;5122506;27;20424;-71
2023/05/28 11:17:51;;;;;;;7.28;5.03;;;;;;;28.93;100.00;95410.13;5123284;27;20376;-69
2023/05/28 11:20:27;;;;;;;5.28;4.40;;;;;;;29.06;100.00;95412.31;5122087;27;20051;-68
2023/05/28 11:22:53;;;;;;;4.85;4.45;;;;;;;28.54;100.00;95409.38;5125151;27;20524;-71